Terminal Aerodrome Forecast
Issued by NWS

Home | Current Version | Previous Version | Text Only | Print | Product List | Glossary On
Versions: 1 2 3 4 5 6 7 8 9 10 11 12 13 14 15 16 17 18
000
FTUS43 KMQT 201100
TAFCMX
TAF
KCMX 201126Z 2012/2112 22006KT P6SM SKC
     FM201400 28010KT P6SM SKC
     FM210000 VRB03KT P6SM SKC
     FM210600 09005KT 2SM BR SCT005=

USA.gov is the U.S. government's official web portal to all federal, state and local government web resources and services.